Time;durP1;ratioP1;P1;durP2;ratioP2;P2;SDS_P1;SDS_P2;PMS_P1;PMS_P2;Temp;Humidity;BMP_temperature;BMP_pressure;BME280_temperature;BME280_humidity;BME280_pressure;Samples;Min_cycle;Max_cycle;Signal;HPM_P1;HPM_P2
2022/09/27 00:01:04;;;;;;;4.10;0.70;;;11.30;25.80;;;;;;5052979;28;20389;-53
2022/09/27 00:03:30;;;;;;;4.23;0.63;;;11.40;20.10;;;;;;5053397;28;20377;-53
2022/09/27 00:06:10;;;;;;;5.20;0.90;;;11.50;1.00;;;;;;5053175;28;20402;-53
2022/09/27 00:08:36;;;;;;;4.72;0.80;;;11.50;1.00;;;;;;5053149;28;20377;-53
2022/09/27 00:11:09;;;;;;;4.10;0.70;;;11.30;9.60;;;;;;5052565;28;20438;-53
2022/09/27 00:13:34;;;;;;;4.47;0.80;;;11.30;20.40;;;;;;5053632;28;20382;-53
2022/09/27 00:16:05;;;;;;;5.70;0.70;;;11.40;22.70;;;;;;5052432;28;20412;-53
2022/09/27 00:18:32;;;;;;;4.00;0.60;;;11.40;24.90;;;;;;5053256;28;20784;-53
2022/09/27 00:21:09;;;;;;;5.47;0.80;;;11.40;10.00;;;;;;5052072;28;20459;-53
2022/09/27 00:23:35;;;;;;;4.32;0.80;;;11.30;37.90;;;;;;5034721;28;20421;-53
2022/09/27 00:26:01;;;;;;;4.50;0.80;;;11.20;99.90;;;;;;5052426;28;20476;-54
2022/09/27 00:28:27;;;;;;;4.30;0.82;;;11.20;99.90;;;;;;5053098;28;20536;-53
2022/09/27 00:30:53;;;;;;;3.80;0.70;;;11.20;99.90;;;;;;5051906;28;20413;-54
2022/09/27 00:33:19;;;;;;;4.88;0.80;;;11.10;99.90;;;;;;5052670;28;20373;-53
2022/09/27 00:35:45;;;;;;;4.10;0.90;;;11.30;99.90;;;;;;5052733;28;20473;-53
2022/09/27 00:38:12;;;;;;;4.00;0.70;;;11.30;99.90;;;;;;5052044;28;20524;-53
2022/09/27 00:40:38;;;;;;;4.65;0.90;;;11.20;99.90;;;;;;5052322;28;20377;-53
2022/09/27 00:43:18;;;;;;;4.63;0.80;;;11.20;99.90;;;;;;5051537;28;20423;-53
2022/09/27 00:45:51;;;;;;;5.50;0.90;;;11.30;99.90;;;;;;5052330;28;20385;-53
2022/09/27 00:48:20;;;;;;;4.20;0.80;;;11.30;99.90;;;;;;5052318;28;20427;-53
2022/09/27 00:50:50;;;;;;;4.05;0.70;;;11.30;99.90;;;;;;5052321;28;20386;-53
2022/09/27 00:53:18;;;;;;;4.90;0.70;;;11.30;99.90;;;;;;5052151;28;20370;-53
2022/09/27 00:55:55;;;;;;;4.50;0.80;;;11.30;99.90;;;;;;5052414;28;20432;-53
2022/09/27 00:58:27;;;;;;;4.25;0.88;;;11.30;99.90;;;;;;5052205;28;20382;-53
2022/09/27 01:00:58;;;;;;;4.00;0.70;;;11.10;99.90;;;;;;5052096;28;20464;-54
2022/09/27 01:03:47;;;;;;;4.28;0.80;;;11.10;99.90;;;;;;5052359;28;20871;-53
2022/09/27 01:06:15;;;;;;;4.50;0.70;;;11.20;99.90;;;;;;5051808;28;20466;-53
2022/09/27 01:08:40;;;;;;;4.40;0.80;;;11.20;99.90;;;;;;5053010;28;20711;-53
2022/09/27 01:11:12;;;;;;;4.00;0.60;;;11.20;99.90;;;;;;5033580;28;20389;-53
2022/09/27 01:14:10;;;;;;;3.88;0.80;;;11.30;99.90;;;;;;5034091;28;20394;-54
2022/09/27 01:16:45;;;;;;;3.90;0.80;;;11.30;99.90;;;;;;5025909;28;20418;-53
2022/09/27 01:19:37;;;;;;;4.10;0.70;;;11.30;99.90;;;;;;5051449;28;20389;-53
2022/09/27 01:22:17;;;;;;;5.18;0.85;;;11.30;99.90;;;;;;5051394;28;20381;-53
2022/09/27 01:24:55;;;;;;;3.70;0.60;;;11.30;99.90;;;;;;5051981;28;20799;-54
2022/09/27 01:27:35;;;;;;;3.90;0.60;;;11.20;99.90;;;;;;5051615;28;20389;-54
2022/09/27 01:30:24;;;;;;;4.40;0.80;;;11.30;99.90;;;;;;5050256;28;20846;-54
2022/09/27 01:32:53;;;;;;;4.15;0.70;;;11.30;99.90;;;;;;5050701;28;20731;-54
2022/09/27 01:35:33;;;;;;;5.40;0.90;;;11.30;99.90;;;;;;5051428;28;20883;-53
2022/09/27 01:38:29;;;;;;;4.50;0.90;;;11.30;99.90;;;;;;5050848;28;20583;-53
2022/09/27 01:41:04;;;;;;;3.95;0.63;;;11.30;99.90;;;;;;5033202;28;20389;-53
2022/09/27 01:43:39;;;;;;;4.10;0.70;;;11.20;99.90;;;;;;5051414;28;20381;-53
2022/09/27 01:46:16;;;;;;;4.30;0.70;;;11.10;99.90;;;;;;5050758;28;20473;-53
2022/09/27 01:48:46;;;;;;;4.20;0.70;;;11.10;99.90;;;;;;5051621;28;20922;-53
2022/09/27 01:51:29;;;;;;;4.10;0.70;;;11.20;99.90;;;;;;5050584;28;20440;-53
2022/09/27 01:54:01;;;;;;;3.90;0.60;;;11.20;99.90;;;;;;5051083;28;20435;-54
2022/09/27 01:56:34;;;;;;;4.00;0.63;;;11.20;99.90;;;;;;5051851;28;20431;-53
2022/09/27 01:59:06;;;;;;;3.95;0.75;;;11.20;99.90;;;;;;5051000;28;20428;-53
2022/09/27 02:01:34;;;;;;;4.00;0.60;;;11.10;99.90;;;;;;5051058;28;20704;-54
2022/09/27 02:04:01;;;;;;;3.90;0.50;;;11.10;99.90;;;;;;5050034;28;20369;-53
2022/09/27 02:06:33;;;;;;;3.90;0.70;;;11.10;99.90;;;;;;5050636;28;20389;-53
2022/09/27 02:09:02;;;;;;;5.45;1.10;;;11.10;99.90;;;;;;5050130;28;20836;-53
2022/09/27 02:11:28;;;;;;;5.35;0.80;;;11.10;99.90;;;;;;5051182;28;20440;-53
2022/09/27 02:14:10;;;;;;;5.22;0.70;;;11.10;99.90;;;;;;5049800;28;20378;-53
2022/09/27 02:16:49;;;;;;;4.20;0.70;;;11.00;99.90;;;;;;5051090;28;20448;-54
2022/09/27 02:19:29;;;;;;;4.00;0.60;;;11.00;99.90;;;;;;5050939;28;20460;-53
2022/09/27 02:22:01;;;;;;;3.80;0.70;;;11.10;99.90;;;;;;5050019;28;20795;-53
2022/09/27 02:24:50;;;;;;;4.68;0.70;;;11.00;99.90;;;;;;5033037;28;20917;-53
2022/09/27 02:27:51;;;;;;;4.40;0.70;;;10.90;99.90;;;;;;5050506;28;20385;-53
2022/09/27 02:30:17;;;;;;;4.00;0.70;;;9.90;99.90;;;;;;5050104;28;20420;-53
2022/09/27 02:32:43;;;;;;;4.20;0.80;;;10.90;99.90;;;;;;5050248;28;20386;-53
2022/09/27 02:35:25;;;;;;;4.20;0.70;;;10.70;99.90;;;;;;5049367;28;20540;-53
2022/09/27 02:37:51;;;;;;;5.75;0.90;;;10.80;99.90;;;;;;5049726;28;20381;-54
2022/09/27 02:40:18;;;;;;;3.70;0.60;;;10.70;99.90;;;;;;5050306;28;20378;-53
2022/09/27 02:42:45;;;;;;;4.13;1.33;;;10.70;99.90;;;;;;5050258;28;20386;-53
2022/09/27 02:45:14;;;;;;;3.93;0.60;;;10.60;99.90;;;;;;5049825;28;20863;-53
2022/09/27 02:47:49;;;;;;;6.15;0.90;;;10.60;99.90;;;;;;5050367;28;20377;-53
2022/09/27 02:50:34;;;;;;;4.50;0.70;;;10.60;99.90;;;;;;5050021;28;20420;-53
2022/09/27 02:53:21;;;;;;;4.10;0.80;;;10.60;99.90;;;;;;5049392;28;20457;-53
2022/09/27 02:56:14;;;;;;;3.95;0.73;;;10.50;99.90;;;;;;5050197;28;20401;-53
2022/09/27 02:58:46;;;;;;;4.53;0.88;;;10.30;99.90;;;;;;5050648;28;20381;-53
2022/09/27 03:01:42;;;;;;;4.60;0.88;;;10.20;99.90;;;;;;5049543;28;20438;-53
2022/09/27 03:04:24;;;;;;;5.35;1.10;;;10.20;99.90;;;;;;5049671;28;20373;-53
2022/09/27 03:06:52;;;;;;;5.20;0.90;;;10.20;99.90;;;;;;5049686;28;20831;-54
2022/09/27 03:09:23;;;;;;;3.90;0.73;;;10.20;99.90;;;;;;5049651;28;20835;-53
2022/09/27 03:11:48;;;;;;;6.53;1.17;;;10.10;99.90;;;;;;5049324;28;20385;-53
2022/09/27 03:14:15;;;;;;;6.10;1.23;;;10.10;99.90;;;;;;5049188;28;20882;-53
2022/09/27 03:16:40;;;;;;;6.97;1.10;;;10.00;99.90;;;;;;5049815;28;20882;-53
2022/09/27 03:19:08;;;;;;;5.10;1.35;;;10.10;99.90;;;;;;5031286;28;20397;-53
2022/09/27 03:21:33;;;;;;;6.38;1.40;;;10.00;99.90;;;;;;5050052;28;20378;-53
2022/09/27 03:23:59;;;;;;;10.33;1.70;;;10.00;99.90;;;;;;5049326;28;20711;-53
2022/09/27 03:26:26;;;;;;;5.80;1.45;;;10.10;99.90;;;;;;5049301;28;20400;-53
2022/09/27 03:28:52;;;;;;;5.80;1.20;;;10.10;99.90;;;;;;5049049;28;20389;-54
2022/09/27 03:31:17;;;;;;;4.55;1.27;;;10.10;99.90;;;;;;5049592;28;20456;-53
2022/09/27 03:33:43;;;;;;;7.00;1.57;;;10.10;99.90;;;;;;5049893;28;21055;-53
2022/09/27 03:36:09;;;;;;;9.13;1.60;;;10.10;99.90;;;;;;5048991;28;20774;-53
2022/09/27 03:38:34;;;;;;;6.80;1.60;;;10.20;99.90;;;;;;5049126;28;20401;-53
2022/09/27 03:41:00;;;;;;;5.20;1.30;;;10.10;99.90;;;;;;5048712;28;20388;-53
2022/09/27 03:43:25;;;;;;;6.17;1.77;;;10.10;99.90;;;;;;5049700;28;20459;-53
2022/09/27 03:45:51;;;;;;;9.85;1.60;;;10.00;99.90;;;;;;5049185;28;20397;-53
2022/09/27 03:48:17;;;;;;;5.37;1.70;;;10.00;99.90;;;;;;5048998;28;20859;-52
2022/09/27 03:50:42;;;;;;;5.63;1.60;;;10.10;99.90;;;;;;5049521;28;20380;-53
2022/09/27 03:53:08;;;;;;;7.43;1.80;;;10.10;99.90;;;;;;5048625;28;20382;-52
2022/09/27 03:55:34;;;;;;;8.27;2.20;;;10.10;99.90;;;;;;5049912;28;20402;-53
2022/09/27 03:58:00;;;;;;;9.45;2.20;;;10.10;99.90;;;;;;5049225;28;20381;-53
2022/09/27 04:00:26;;;;;;;6.97;2.10;;;10.10;99.90;;;;;;5049222;28;20454;-53
2022/09/27 04:02:51;;;;;;;6.00;2.30;;;10.20;99.90;;;;;;5048815;28;20389;-54
2022/09/27 04:05:18;;;;;;;6.80;1.73;;;10.30;99.90;;;;;;5049172;28;20385;-53
2022/09/27 04:07:49;;;;;;;9.15;2.03;;;10.20;99.90;;;;;;5048653;28;20844;-53
2022/09/27 04:10:15;;;;;;;6.45;1.75;;;10.30;99.90;;;;;;5048734;28;20416;-53
2022/09/27 04:12:42;;;;;;;8.70;1.67;;;10.30;99.90;;;;;;5049631;28;20409;-53
2022/09/27 04:15:08;;;;;;;9.80;2.00;;;10.30;99.90;;;;;;5048742;28;20405;-54
2022/09/27 04:17:34;;;;;;;7.77;2.47;;;10.30;99.90;;;;;;5049276;28;20416;-53
2022/09/27 04:20:02;;;;;;;7.90;1.75;;;10.30;99.90;;;;;;5048202;28;20427;-53
2022/09/27 04:22:29;;;;;;;6.28;1.50;;;10.30;99.90;;;;;;5048971;28;20381;-53
2022/09/27 04:24:54;;;;;;;7.23;1.60;;;10.20;99.90;;;;;;5048322;28;20412;-53
2022/09/27 04:27:21;;;;;;;5.40;1.63;;;10.20;99.90;;;;;;5049109;28;20980;-53
2022/09/27 04:29:47;;;;;;;8.30;1.70;;;10.20;99.90;;;;;;5052637;28;20397;-53
2022/09/27 04:32:15;;;;;;;7.18;1.60;;;10.20;99.90;;;;;;5052190;28;20443;-53
2022/09/27 04:37:26;;;;;;;5.77;1.50;;;10.20;99.90;;;;;;5052298;28;20385;-53
2022/09/27 04:39:51;;;;;;;7.90;1.80;;;10.30;99.90;;;;;;5051840;28;20931;-54
2022/09/27 04:42:17;;;;;;;7.20;1.70;;;10.20;99.90;;;;;;5052733;28;20464;-53
2022/09/27 04:44:43;;;;;;;10.60;2.00;;;10.30;99.90;;;;;;5052828;28;20474;-53
2022/09/27 04:47:09;;;;;;;5.97;1.60;;;10.30;99.90;;;;;;5051888;28;20381;-53
2022/09/27 04:49:35;;;;;;;7.82;1.60;;;10.30;99.90;;;;;;5052358;28;20870;-53
2022/09/27 04:52:01;;;;;;;8.70;1.67;;;11.50;99.90;;;;;;5051820;28;20388;-53
2022/09/27 04:54:26;;;;;;;6.50;1.73;;;10.00;99.90;;;;;;5052297;28;20388;-53
2022/09/27 04:56:52;;;;;;;4.63;1.45;;;10.00;99.90;;;;;;5052047;28;20834;-53
2022/09/27 04:59:18;;;;;;;5.00;1.40;;;10.00;99.90;;;;;;5034282;28;20421;-53
2022/09/27 05:01:46;;;;;;;7.60;1.42;;;10.10;99.90;;;;;;5051701;28;20783;-53
2022/09/27 05:04:11;;;;;;;8.75;1.40;;;10.00;99.90;;;;;;5051296;28;20936;-53
2022/09/27 05:06:37;;;;;;;6.13;1.53;;;10.00;99.90;;;;;;5052047;28;20381;-53
2022/09/27 05:09:03;;;;;;;5.93;1.30;;;10.20;99.90;;;;;;5051813;28;20843;-53
2022/09/27 05:11:28;;;;;;;7.43;1.20;;;10.20;99.90;;;;;;5034268;28;20386;-53
2022/09/27 05:13:54;;;;;;;5.20;1.00;;;10.20;99.90;;;;;;5052052;28;20393;-53
2022/09/27 05:16:20;;;;;;;4.30;1.00;;;10.20;99.90;;;;;;5052237;28;20409;-53
2022/09/27 05:18:45;;;;;;;6.50;1.17;;;10.10;99.90;;;;;;5051480;28;20477;-53
2022/09/27 05:21:12;;;;;;;5.18;1.20;;;10.20;99.90;;;;;;5051763;28;20872;-53
2022/09/27 05:23:37;;;;;;;4.15;0.90;;;10.20;99.90;;;;;;5051366;28;20865;-53
2022/09/27 05:26:05;;;;;;;5.55;1.08;;;10.10;99.90;;;;;;5050818;28;20469;-53
2022/09/27 05:28:31;;;;;;;4.90;0.90;;;10.10;99.90;;;;;;5053526;28;20494;-53
2022/09/27 05:30:57;;;;;;;5.90;1.10;;;10.10;99.90;;;;;;5062605;28;20417;-53
2022/09/27 05:33:22;;;;;;;4.88;1.13;;;10.00;99.90;;;;;;5070997;28;20444;-53
2022/09/27 05:35:52;;;;;;;4.47;1.15;;;10.00;99.90;;;;;;5071607;28;20404;-54
2022/09/27 05:38:18;;;;;;;6.80;1.20;;;11.30;99.90;;;;;;5070769;28;20391;-54
2022/09/27 05:40:46;;;;;;;4.40;1.10;;;10.00;99.90;;;;;;5071791;28;20368;-55
2022/09/27 05:43:12;;;;;;;4.72;0.98;;;10.10;99.90;;;;;;5070370;28;20427;-54
2022/09/27 05:45:37;;;;;;;4.60;1.00;;;10.00;99.90;;;;;;5067590;28;20426;-54
2022/09/27 05:48:04;;;;;;;5.30;1.10;;;10.00;99.90;;;;;;5065278;28;20837;-55
2022/09/27 05:50:30;;;;;;;6.93;1.50;;;10.10;99.90;;;;;;5065422;28;20915;-53
2022/09/27 05:52:56;;;;;;;6.63;1.30;;;10.10;99.90;;;;;;5067449;28;20444;-54
2022/09/27 05:55:22;;;;;;;5.70;1.30;;;10.10;99.90;;;;;;5061596;28;20467;-53
2022/09/27 05:57:59;;;;;;;6.07;1.50;;;10.10;99.90;;;;;;5065216;28;20413;-54
2022/09/27 06:00:26;;;;;;;6.20;1.50;;;10.20;99.90;;;;;;5068078;28;20408;-53
2022/09/27 06:02:57;;;;;;;5.03;1.45;;;10.00;99.90;;;;;;5064984;28;20391;-53
2022/09/27 06:05:24;;;;;;;5.90;1.50;;;9.90;99.90;;;;;;5061679;28;20399;-53
2022/09/27 06:07:51;;;;;;;4.50;1.13;;;10.00;99.90;;;;;;5070389;28;20380;-53
2022/09/27 06:10:18;;;;;;;5.50;1.60;;;10.10;99.90;;;;;;5069611;28;21076;-54
2022/09/27 06:12:44;;;;;;;5.67;1.60;;;10.10;99.90;;;;;;5070067;28;20400;-53
2022/09/27 06:15:11;;;;;;;5.05;1.42;;;10.20;99.90;;;;;;5069616;28;20403;-54
2022/09/27 06:17:36;;;;;;;6.22;1.50;;;10.20;99.90;;;;;;5068132;28;20453;-54
2022/09/27 06:20:03;;;;;;;4.38;1.30;;;10.20;99.90;;;;;;5063284;28;20399;-53
2022/09/27 06:22:29;;;;;;;5.43;1.40;;;10.30;99.90;;;;;;5059454;28;20391;-54
2022/09/27 06:24:55;;;;;;;6.38;1.60;;;10.40;99.90;;;;;;5072449;28;20493;-54
2022/09/27 06:27:20;;;;;;;6.20;1.63;;;10.20;99.90;;;;;;5087637;28;20461;-53
2022/09/27 06:29:46;;;;;;;6.03;1.50;;;10.20;99.90;;;;;;5068839;28;20420;-53
2022/09/27 06:32:12;;;;;;;5.60;1.38;;;10.30;99.90;;;;;;5068699;28;20933;-53
2022/09/27 06:34:38;;;;;;;5.00;1.23;;;10.20;99.90;;;;;;5067633;28;20384;-53
2022/09/27 06:37:04;;;;;;;6.47;1.30;;;10.10;99.90;;;;;;5067553;28;20457;-53
2022/09/27 06:39:33;;;;;;;5.70;1.20;;;10.10;99.90;;;;;;5063999;28;20432;-53
2022/09/27 06:41:59;;;;;;;4.80;1.10;;;10.30;99.90;;;;;;5063336;28;20481;-54
2022/09/27 06:44:25;;;;;;;4.63;1.10;;;10.50;99.90;;;;;;5059319;28;20930;-53
2022/09/27 06:46:52;;;;;;;5.13;1.00;;;10.80;99.90;;;;;;5050043;28;20377;-53
2022/09/27 06:49:18;;;;;;;4.30;0.80;;;10.40;64.40;;;;;;5049434;28;20366;-53
2022/09/27 06:51:44;;;;;;;4.00;0.77;;;10.30;89.60;;;;;;5049562;28;20373;-53
2022/09/27 06:54:10;;;;;;;4.43;0.90;;;10.20;99.90;;;;;;5049289;28;20412;-53
2022/09/27 06:56:36;;;;;;;4.10;0.80;;;10.10;99.90;;;;;;5085674;28;20425;-53
2022/09/27 07:01:46;;;;;;;4.82;1.13;;;10.00;99.90;;;;;;5071524;28;20470;-53
2022/09/27 07:04:12;;;;;;;9.00;0.80;;;10.10;99.90;;;;;;5069306;28;20663;-53
2022/09/27 07:06:38;;;;;;;4.20;0.70;;;10.00;99.90;;;;;;5069252;28;20437;-53
2022/09/27 07:09:05;;;;;;;3.77;0.60;;;9.90;99.90;;;;;;5069004;28;20390;-53
2022/09/27 07:11:35;;;;;;;3.70;0.50;;;9.80;99.90;;;;;;5064195;28;20391;-53
2022/09/27 07:14:03;;;;;;;4.60;0.75;;;9.70;99.90;;;;;;5058220;28;20418;-53
2022/09/27 07:16:30;;;;;;;5.40;0.70;;;9.80;99.90;;;;;;5067334;28;20804;-53
2022/09/27 07:18:56;;;;;;;3.80;0.57;;;9.90;99.90;;;;;;5069437;28;20391;-54
2022/09/27 07:21:23;;;;;;;4.20;0.70;;;10.10;99.90;;;;;;5069003;28;20407;-53
2022/09/27 07:23:49;;;;;;;3.88;0.70;;;10.10;99.90;;;;;;5069853;28;20415;-53
2022/09/27 07:26:15;;;;;;;3.70;0.50;;;10.00;99.90;;;;;;5078320;28;20378;-53
2022/09/27 07:28:40;;;;;;;3.90;0.50;;;9.80;99.90;;;;;;5063333;28;20392;-53
2022/09/27 07:31:07;;;;;;;4.70;0.60;;;10.00;99.90;;;;;;5069242;28;20468;-53
2022/09/27 07:33:33;;;;;;;4.23;0.50;;;10.00;99.90;;;;;;5068974;28;20384;-53
2022/09/27 07:35:59;;;;;;;3.90;0.60;;;10.00;99.90;;;;;;5064142;28;20408;-53
2022/09/27 07:38:25;;;;;;;4.40;0.70;;;9.90;99.90;;;;;;5055475;28;20381;-53
2022/09/27 07:40:50;;;;;;;3.90;0.70;;;10.00;99.90;;;;;;5055132;28;20853;-53
2022/09/27 07:43:16;;;;;;;5.30;0.93;;;10.00;99.90;;;;;;5063203;28;20380;-53
2022/09/27 07:45:42;;;;;;;4.23;0.80;;;10.00;99.90;;;;;;5066629;28;20540;-53
2022/09/27 07:48:11;;;;;;;4.40;0.80;;;9.90;99.90;;;;;;5068481;28;20383;-53
2022/09/27 07:50:37;;;;;;;4.80;1.30;;;10.10;99.90;;;;;;5050865;28;20396;-53
2022/09/27 07:53:04;;;;;;;4.00;0.60;;;10.60;99.90;;;;;;5068901;28;20384;-53
2022/09/27 07:55:30;;;;;;;4.20;0.90;;;11.20;1.00;;;;;;5066431;28;20441;-53
2022/09/27 07:58:10;;;;;;;4.38;1.10;;;11.40;1.00;;;;;;5068167;28;20771;-52
2022/09/27 08:00:37;;;;;;;5.50;1.00;;;12.60;1.00;;;;;;5065260;28;20459;-54
2022/09/27 08:03:14;;;;;;;4.60;1.00;;;13.90;1.00;;;;;;5068839;28;20413;-54
2022/09/27 08:05:41;;;;;;;4.80;1.00;;;14.30;99.90;;;;;;5068798;28;20470;-54
2022/09/27 08:08:07;;;;;;;5.30;1.08;;;15.00;1.00;;;;;;5069653;28;21479;-54
2022/09/27 08:10:34;;;;;;;5.20;1.00;;;16.00;1.00;;;;;;5066696;28;20517;-54
2022/09/27 08:13:04;;;;;;;4.85;1.30;;;15.20;99.90;;;;;;5051379;28;20392;-52
2022/09/27 08:15:39;;;;;;;4.93;1.10;;;13.70;99.90;;;;;;5054774;28;20407;-51
2022/09/27 08:18:08;;;;;;;4.90;1.08;;;12.90;99.90;;;;;;5070113;28;20399;-54
2022/09/27 08:20:34;;;;;;;4.80;0.90;;;12.30;81.20;;;;;;5072816;28;20394;-54
2022/09/27 08:23:01;;;;;;;5.80;1.40;;;12.20;99.90;;;;;;5072155;28;20376;-51
2022/09/27 08:25:29;;;;;;;4.53;1.10;;;13.20;1.00;;;;;;5072306;28;20383;-52
2022/09/27 08:27:59;;;;;;;5.57;1.20;;;14.50;99.90;;;;;;5071745;28;20395;-53
2022/09/27 08:30:27;;;;;;;4.80;1.07;;;14.70;1.00;;;;;;5072582;28;20425;-53
2022/09/27 08:33:02;;;;;;;4.85;1.10;;;15.10;1.00;;;;;;5072313;28;20417;-54
2022/09/27 08:35:28;;;;;;;4.60;1.00;;;14.90;1.00;;;;;;5070624;28;20788;-54
2022/09/27 08:37:58;;;;;;;4.60;0.70;;;15.30;1.00;;;;;;5072119;28;20845;-55
2022/09/27 08:40:36;;;;;;;6.60;0.90;;;14.40;99.90;;;;;;5072624;28;20859;-52
2022/09/27 08:43:09;;;;;;;6.10;1.00;;;13.80;1.00;;;;;;5068831;28;20431;-52
2022/09/27 08:45:48;;;;;;;5.00;1.20;;;13.80;99.90;;;;;;5071906;28;20419;-51
2022/09/27 08:48:15;;;;;;;5.20;0.80;;;12.90;99.90;;;;;;5071175;28;20388;-53
2022/09/27 08:50:44;;;;;;;6.80;1.33;;;12.40;99.90;;;;;;5054774;28;20869;-53
2022/09/27 08:53:12;;;;;;;5.20;1.40;;;11.90;1.00;;;;;;5071982;28;20404;-53
2022/09/27 08:55:43;;;;;;;5.45;1.20;;;11.70;99.90;;;;;;5070734;28;20413;-53
2022/09/27 08:58:37;;;;;;;4.50;0.93;;;11.70;99.90;;;;;;5071523;28;20397;-53
2022/09/27 09:01:08;;;;;;;5.10;1.40;;;11.70;99.90;;;;;;5071547;28;20472;-54
2022/09/27 09:03:38;;;;;;;5.03;1.20;;;11.70;99.90;;;;;;5071513;28;20466;-53
2022/09/27 09:06:25;;;;;;;5.85;1.20;;;11.90;99.90;;;;;;5071734;28;20380;-53
2022/09/27 09:09:11;;;;;;;6.57;1.60;;;11.90;1.00;;;;;;5072078;28;20388;-53
2022/09/27 09:14:43;;;;;;;5.20;1.33;;;11.90;1.00;;;;;;5070980;28;20382;-53
2022/09/27 09:17:18;;;;;;;4.72;1.10;;;11.80;1.00;;;;;;5071894;28;20376;-53
2022/09/27 09:19:52;;;;;;;4.60;1.10;;;11.70;18.90;;;;;;5072194;28;20376;-53
2022/09/27 09:22:39;;;;;;;5.80;1.40;;;11.70;1.00;;;;;;5071695;28;20510;-53
2022/09/27 09:25:14;;;;;;;5.82;1.30;;;12.50;1.00;;;;;;5070896;28;20857;-52
2022/09/27 09:27:50;;;;;;;6.20;1.50;;;13.00;1.00;;;;;;5071690;28;20402;-51
2022/09/27 09:30:28;;;;;;;5.38;1.23;;;13.70;1.00;;;;;;5071104;28;20408;-51
2022/09/27 09:33:08;;;;;;;4.75;1.13;;;13.90;1.00;;;;;;5071935;28;20399;-51
2022/09/27 09:35:46;;;;;;;4.50;1.00;;;14.20;1.00;;;;;;5071315;28;20465;-51
2022/09/27 09:38:20;;;;;;;5.70;1.40;;;13.90;1.00;;;;;;5070844;28;20898;-51
2022/09/27 09:40:59;;;;;;;5.00;1.20;;;13.70;1.00;;;;;;5071134;28;20386;-51
2022/09/27 09:43:29;;;;;;;5.72;1.30;;;13.10;1.00;;;;;;5071579;28;20501;-51
2022/09/27 09:46:37;;;;;;;6.10;1.10;;;13.20;1.00;;;;;;5071669;28;20434;-51
2022/09/27 09:49:21;;;;;;;5.50;1.20;;;13.00;1.00;;;;;;5070090;28;20408;-51
2022/09/27 09:52:10;;;;;;;5.10;1.20;;;13.40;1.00;;;;;;5071399;28;20388;-51
2022/09/27 09:54:50;;;;;;;6.67;1.30;;;14.60;1.00;;;;;;5070770;28;20394;-54
2022/09/27 09:57:32;;;;;;;6.90;1.48;;;16.00;1.00;;;;;;5071070;28;20442;-53
2022/09/27 10:00:04;;;;;;;5.90;1.20;;;16.50;1.00;;;;;;5070679;28;20392;-54
2022/09/27 10:02:42;;;;;;;7.20;1.73;;;16.70;1.00;;;;;;5071344;28;20402;-54
2022/09/27 10:05:15;;;;;;;6.60;1.73;;;17.60;1.00;;;;;;5070120;28;20392;-54
2022/09/27 10:07:41;;;;;;;5.97;1.83;;;16.00;1.00;;;;;;5071063;28;20483;-54
2022/09/27 10:10:10;;;;;;;6.00;1.80;;;15.30;1.00;;;;;;5070519;28;20380;-52
2022/09/27 10:12:36;;;;;;;5.72;1.30;;;15.00;1.00;;;;;;5070911;28;20376;-52
2022/09/27 10:15:04;;;;;;;6.93;1.60;;;15.00;1.00;;;;;;5069847;28;20437;-52
2022/09/27 10:17:37;;;;;;;6.50;1.63;;;14.80;1.00;;;;;;5071502;28;20384;-51
2022/09/27 10:20:05;;;;;;;7.13;1.75;;;14.20;1.00;;;;;;5069981;28;20399;-52
2022/09/27 10:22:41;;;;;;;5.85;1.38;;;14.30;1.00;;;;;;5070694;28;20505;-51
2022/09/27 10:25:08;;;;;;;6.70;1.70;;;14.10;1.00;;;;;;5069142;28;20845;-52
2022/09/27 10:27:46;;;;;;;5.20;1.33;;;14.40;1.00;;;;;;5069999;28;20379;-52
2022/09/27 10:30:28;;;;;;;5.38;1.38;;;14.20;1.00;;;;;;5069340;28;20494;-52
2022/09/27 10:32:58;;;;;;;5.97;1.80;;;13.60;1.00;;;;;;5070898;28;20386;-52
2022/09/27 10:35:40;;;;;;;7.47;1.38;;;13.50;1.00;;;;;;5070775;28;20418;-52
2022/09/27 10:38:33;;;;;;;6.40;1.30;;;13.30;1.00;;;;;;5069565;28;20500;-52
2022/09/27 10:41:37;;;;;;;5.20;1.20;;;13.50;1.00;;;;;;5070044;28;20416;-53
2022/09/27 10:44:27;;;;;;;5.10;1.20;;;13.30;1.00;;;;;;5069656;28;20405;-52
2022/09/27 10:47:00;;;;;;;7.20;1.40;;;12.80;1.00;;;;;;5069982;28;20394;-52
2022/09/27 10:49:39;;;;;;;6.50;1.33;;;12.70;1.00;;;;;;5070323;28;20449;-52
2022/09/27 10:52:23;;;;;;;5.90;1.33;;;12.80;18.40;;;;;;5069572;28;20484;-52
2022/09/27 10:55:06;;;;;;;6.05;1.40;;;12.90;1.00;;;;;;5070159;28;20448;-52
2022/09/27 10:57:32;;;;;;;5.90;1.10;;;13.00;1.00;;;;;;5070487;28;20483;-52
2022/09/27 11:00:19;;;;;;;5.80;1.20;;;13.00;1.00;;;;;;5070061;28;20483;-53
2022/09/27 11:02:52;;;;;;;5.60;1.20;;;12.90;75.10;;;;;;5070047;28;20546;-52
2022/09/27 11:05:26;;;;;;;6.20;1.50;;;12.90;99.90;;;;;;5069105;28;20459;-52
2022/09/27 11:08:02;;;;;;;6.27;1.50;;;12.90;99.90;;;;;;5070247;28;20485;-52
2022/09/27 11:10:35;;;;;;;6.63;1.60;;;12.60;16.20;;;;;;5070112;28;20379;-52
2022/09/27 11:13:18;;;;;;;6.60;1.70;;;12.50;1.00;;;;;;5069368;28;20379;-52
2022/09/27 11:15:55;;;;;;;6.10;1.70;;;12.30;99.90;;;;;;5069320;28;20419;-52
2022/09/27 11:18:38;;;;;;;7.60;1.90;;;12.30;99.90;;;;;;5069575;28;20518;-52
2022/09/27 11:21:18;;;;;;;6.30;2.00;;;12.30;1.00;;;;;;5069142;28;20845;-52
2022/09/27 11:24:29;;;;;;;7.10;2.00;;;12.40;1.00;;;;;;5070013;28;20380;-52
2022/09/27 11:26:58;;;;;;;6.82;2.40;;;12.50;99.90;;;;;;5069657;28;20395;-52
2022/09/27 11:29:50;;;;;;;8.47;2.20;;;12.60;99.90;;;;;;5069164;28;20915;-52
2022/09/27 11:32:29;;;;;;;6.10;1.67;;;12.60;99.90;;;;;;5068661;28;20380;-52
2022/09/27 11:35:17;;;;;;;6.13;1.95;;;12.90;99.90;;;;;;5069420;28;20468;-52
2022/09/27 11:38:12;;;;;;;6.90;2.40;;;13.10;99.90;;;;;;5073521;28;20473;-52
2022/09/27 11:40:59;;;;;;;9.35;2.97;;;13.10;99.90;;;;;;5058725;28;20447;-52
2022/09/27 11:43:36;;;;;;;7.60;2.40;;;12.80;1.00;;;;;;5075814;28;20371;-52
2022/09/27 11:46:11;;;;;;;5.28;1.40;;;12.10;1.00;;;;;;5076110;28;20832;-55
2022/09/27 11:48:42;;;;;;;11.00;1.60;;;11.00;91.80;;;;;;5076439;28;20379;-54
2022/09/27 11:51:34;;;;;;;5.03;1.33;;;10.30;99.90;;;;;;5075683;28;20372;-52
2022/09/27 11:54:19;;;;;;;4.83;1.30;;;9.80;99.90;;;;;;5076121;28;20383;-52
2022/09/27 11:56:49;;;;;;;5.70;1.10;;;9.70;99.90;;;;;;5076335;28;20403;-52
2022/09/27 11:59:55;;;;;;;4.60;0.88;;;9.40;99.90;;;;;;5075289;28;20399;-52
2022/09/27 12:02:48;;;;;;;4.15;0.63;;;9.00;99.90;;;;;;5076035;28;20478;-52
2022/09/27 12:05:42;;;;;;;4.40;0.73;;;8.80;99.90;;;;;;5075839;28;20388;-51
2022/09/27 12:08:46;;;;;;;3.95;0.77;;;8.90;99.90;;;;;;5075723;28;20416;-52
2022/09/27 12:11:12;;;;;;;6.07;0.80;;;9.20;99.90;;;;;;5057495;28;20387;-52
2022/09/27 12:13:46;;;;;;;3.77;0.60;;;9.50;99.90;;;;;;5075931;28;20381;-54
2022/09/27 12:16:14;;;;;;;5.80;1.00;;;9.60;99.90;;;;;;5074310;28;20479;-53
2022/09/27 12:18:41;;;;;;;4.00;0.80;;;9.80;99.90;;;;;;5076177;28;20457;-57
2022/09/27 12:21:09;;;;;;;4.78;0.82;;;10.00;99.90;;;;;;5076091;28;20470;-54
2022/09/27 12:23:44;;;;;;;3.55;0.50;;;10.10;99.90;;;;;;5076449;28;20475;-54
2022/09/27 12:26:48;;;;;;;3.80;0.60;;;10.10;99.90;;;;;;5075124;28;20398;-55
2022/09/27 12:29:32;;;;;;;3.80;0.57;;;10.10;99.90;;;;;;5074104;28;20865;-52
2022/09/27 12:32:14;;;;;;;3.83;0.65;;;9.70;99.90;;;;;;5076096;28;20384;-52
2022/09/27 12:34:53;;;;;;;4.60;0.60;;;9.70;99.90;;;;;;5076028;28;20376;-55
2022/09/27 12:37:35;;;;;;;4.00;0.70;;;9.70;99.90;;;;;;5075436;28;20399;-54
2022/09/27 12:40:13;;;;;;;3.90;0.70;;;9.80;99.90;;;;;;5074945;28;20437;-55
2022/09/27 12:42:48;;;;;;;4.03;0.68;;;9.80;99.90;;;;;;5076038;28;20488;-55
2022/09/27 12:45:14;;;;;;;4.50;0.70;;;9.60;99.90;;;;;;5075465;28;20454;-55
2022/09/27 12:48:27;;;;;;;4.10;0.50;;;9.80;99.90;;;;;;5075829;28;20861;-55
2022/09/27 12:51:04;;;;;;;3.95;0.77;;;9.90;99.90;;;;;;5027456;28;20395;-54
2022/09/27 12:53:41;;;;;;;3.95;0.70;;;10.00;99.90;;;;;;5072887;28;20455;-54
2022/09/27 12:56:25;;;;;;;4.40;0.90;;;10.20;99.90;;;;;;5071322;28;20570;-54
2022/09/27 12:59:01;;;;;;;4.18;0.90;;;10.10;99.90;;;;;;5072306;28;20854;-54
2022/09/27 13:01:48;;;;;;;4.18;0.75;;;10.30;99.90;;;;;;5072266;28;20411;-54
2022/09/27 13:04:35;;;;;;;4.70;0.90;;;10.20;99.90;;;;;;5071440;28;20835;-54
2022/09/27 13:07:34;;;;;;;4.07;0.77;;;10.30;99.90;;;;;;5071253;28;20394;-55
2022/09/27 13:10:28;;;;;;;4.18;0.95;;;10.40;99.90;;;;;;5072324;28;20459;-54
2022/09/27 13:12:55;;;;;;;5.75;1.20;;;10.40;99.90;;;;;;5072512;28;20364;-54
2022/09/27 13:15:30;;;;;;;4.93;1.20;;;10.20;99.90;;;;;;5070988;28;21051;-54
2022/09/27 13:17:58;;;;;;;5.10;1.00;;;10.10;99.90;;;;;;5072305;28;20414;-54
2022/09/27 13:20:30;;;;;;;4.78;1.20;;;10.00;99.90;;;;;;5071220;28;20376;-54
2022/09/27 13:22:57;;;;;;;4.43;0.85;;;10.00;99.90;;;;;;5054128;28;20720;-54
2022/09/27 13:25:58;;;;;;;4.23;0.83;;;9.80;99.90;;;;;;5070839;28;20546;-54
2022/09/27 13:28:31;;;;;;;4.27;0.90;;;9.70;99.90;;;;;;5071339;28;20383;-54